createdAt,value
2022-10-17T00:01:22.840Z,3.60
2022-10-17T00:03:49.226Z,4.28
2022-10-17T00:06:15.970Z,4.20
2022-10-17T00:08:43.487Z,3.70
2022-10-17T00:11:15.842Z,3.55
2022-10-17T00:13:42.492Z,3.65
2022-10-17T00:16:10.324Z,3.10
2022-10-17T00:18:36.769Z,3.80
2022-10-17T00:21:03.367Z,3.75
2022-10-17T00:23:30.457Z,3.72
2022-10-17T00:26:01.778Z,4.07
2022-10-17T00:28:28.347Z,3.80
2022-10-17T00:31:03.927Z,4.30
2022-10-17T00:33:31.449Z,3.70
2022-10-17T00:36:13.381Z,3.92
2022-10-17T00:38:41.971Z,3.88
2022-10-17T00:41:09.525Z,3.53
2022-10-17T00:44:03.756Z,3.75
2022-10-17T00:46:41.190Z,3.75
2022-10-17T00:49:10.857Z,3.70
2022-10-17T00:51:42.916Z,4.20
2022-10-17T00:54:11.574Z,4.15
2022-10-17T00:56:40.397Z,3.50
2022-10-17T00:59:12.267Z,4.45
2022-10-17T01:01:41.087Z,4.30
2022-10-17T01:04:07.908Z,4.13
2022-10-17T01:06:34.291Z,4.18
2022-10-17T01:09:00.860Z,4.30
2022-10-17T01:12:00.974Z,3.70
2022-10-17T01:14:30.594Z,4.40
2022-10-17T01:17:16.253Z,4.23
2022-10-17T01:20:15.874Z,4.75
2022-10-17T01:23:17.869Z,3.90
2022-10-17T01:26:19.808Z,4.53
2022-10-17T01:29:07.975Z,4.30
2022-10-17T01:31:46.228Z,4.63
2022-10-17T01:34:28.429Z,3.67
2022-10-17T01:37:06.802Z,4.05
2022-10-17T01:39:39.518Z,4.20
2022-10-17T01:42:17.582Z,4.05
2022-10-17T01:44:59.717Z,4.20
2022-10-17T01:47:30.997Z,4.18
2022-10-17T01:50:04.207Z,4.50
2022-10-17T01:52:38.997Z,4.18
2022-10-17T01:55:13.218Z,4.30
2022-10-17T01:57:45.125Z,4.00
2022-10-17T02:00:16.946Z,4.60
2022-10-17T02:02:46.482Z,4.20
2022-10-17T02:05:12.922Z,4.72
2022-10-17T02:07:41.804Z,4.50
2022-10-17T02:10:35.651Z,4.85
2022-10-17T02:13:24.376Z,4.85
2022-10-17T02:16:09.835Z,5.07
2022-10-17T02:18:53.395Z,5.60
2022-10-17T02:21:37.829Z,5.13
2022-10-17T02:24:36.048Z,5.10
2022-10-17T02:27:31.550Z,4.97
2022-10-17T02:30:29.486Z,4.80
2022-10-17T02:33:01.883Z,5.85
2022-10-17T02:35:32.994Z,5.18
2022-10-17T02:38:00.750Z,5.20
2022-10-17T02:40:30.663Z,5.20
2022-10-17T02:42:59.258Z,5.70
2022-10-17T02:45:28.275Z,5.47
2022-10-17T02:48:24.127Z,5.50
2022-10-17T02:51:12.443Z,5.40
2022-10-17T02:54:09.857Z,5.43
2022-10-17T02:56:44.055Z,5.65
2022-10-17T02:59:14.132Z,5.03
2022-10-17T03:01:41.182Z,5.57
2022-10-17T03:04:09.954Z,5.70
2022-10-17T03:06:36.620Z,5.88
2022-10-17T03:09:03.868Z,5.25
2022-10-17T03:11:30.463Z,5.40
2022-10-17T03:13:56.857Z,5.55
2022-10-17T03:16:23.202Z,4.93
2022-10-17T03:18:50.294Z,5.40
2022-10-17T03:21:17.355Z,5.28
2022-10-17T03:23:43.781Z,5.45
2022-10-17T03:26:10.623Z,5.78
2022-10-17T03:28:37.287Z,5.82
2022-10-17T03:31:18.032Z,5.50
2022-10-17T03:33:44.402Z,5.68
2022-10-17T03:36:14.077Z,5.95
2022-10-17T03:38:40.888Z,5.63
2022-10-17T03:41:07.625Z,5.50
2022-10-17T03:43:34.158Z,5.60
2022-10-17T03:46:01.423Z,5.65
2022-10-17T03:48:29.812Z,5.30
2022-10-17T03:51:06.667Z,5.55
2022-10-17T03:53:33.518Z,5.50
2022-10-17T03:56:15.440Z,5.07
2022-10-17T03:58:42.612Z,5.95
2022-10-17T04:01:11.315Z,5.50
2022-10-17T04:03:38.137Z,5.80
2022-10-17T04:06:05.150Z,5.53
2022-10-17T04:08:31.709Z,5.20
2022-10-17T04:11:02.436Z,5.50
2022-10-17T04:13:29.456Z,5.38
2022-10-17T04:16:03.134Z,5.93
2022-10-17T04:18:29.620Z,5.55
2022-10-17T04:20:56.129Z,5.40
2022-10-17T04:23:22.919Z,5.40
2022-10-17T04:25:49.594Z,5.03
2022-10-17T04:28:15.950Z,5.20
2022-10-17T04:30:45.091Z,6.40
2022-10-17T04:33:12.108Z,5.97
2022-10-17T04:35:38.422Z,4.90
2022-10-17T04:38:04.823Z,5.18
2022-10-17T04:40:31.283Z,5.75
2022-10-17T04:42:57.606Z,5.38
2022-10-17T04:45:23.931Z,5.30
2022-10-17T04:47:50.289Z,5.25
2022-10-17T04:50:16.782Z,5.20
2022-10-17T04:52:43.146Z,5.20
2022-10-17T04:55:09.464Z,5.38
2022-10-17T04:57:37.382Z,5.70
2022-10-17T05:00:04.694Z,5.22
2022-10-17T05:02:31.379Z,5.32
2022-10-17T05:04:57.974Z,5.57
2022-10-17T05:07:24.275Z,5.68
2022-10-17T05:09:50.637Z,5.63
2022-10-17T05:12:17.133Z,5.78
2022-10-17T05:14:43.617Z,5.10
2022-10-17T05:17:10.046Z,4.93
2022-10-17T05:19:36.397Z,5.30
2022-10-17T05:22:02.754Z,5.00
2022-10-17T05:24:29.136Z,5.72
2022-10-17T05:26:55.639Z,5.35
2022-10-17T05:29:22.228Z,5.90
2022-10-17T05:31:48.601Z,5.50
2022-10-17T05:34:15.014Z,5.30
2022-10-17T05:36:41.364Z,5.32
2022-10-17T05:39:08.727Z,4.95
2022-10-17T05:41:35.242Z,5.30
2022-10-17T05:44:04.663Z,5.28
2022-10-17T05:46:32.210Z,5.65
2022-10-17T05:48:58.672Z,5.70
2022-10-17T05:51:25.004Z,5.28
2022-10-17T05:53:51.408Z,5.47
2022-10-17T05:56:20.236Z,4.90
2022-10-17T05:58:53.203Z,5.20
2022-10-17T06:01:21.469Z,4.82
2022-10-17T06:03:47.902Z,5.25
2022-10-17T06:06:15.220Z,4.78
2022-10-17T06:08:41.791Z,5.20
2022-10-17T06:11:10.200Z,5.23
2022-10-17T06:13:37.858Z,5.00
2022-10-17T06:16:04.518Z,5.18
2022-10-17T06:18:31.089Z,5.43
2022-10-17T06:21:10.930Z,5.55
2022-10-17T06:23:37.639Z,5.30
2022-10-17T06:26:05.808Z,5.28
2022-10-17T06:28:32.819Z,5.22
2022-10-17T06:30:59.325Z,5.68
2022-10-17T06:33:25.891Z,5.60
2022-10-17T06:35:56.195Z,5.47
2022-10-17T06:38:23.031Z,5.55
2022-10-17T06:40:49.608Z,5.70
2022-10-17T06:43:15.960Z,5.20
2022-10-17T06:45:42.321Z,5.35
2022-10-17T06:48:09.342Z,5.20
2022-10-17T06:50:35.708Z,5.60
2022-10-17T06:53:02.121Z,4.80
2022-10-17T06:55:28.563Z,5.15
2022-10-17T06:57:56.111Z,5.53
2022-10-17T07:00:23.372Z,5.50
2022-10-17T07:02:50.081Z,4.90
2022-10-17T07:05:17.242Z,5.40
2022-10-17T07:07:44.829Z,5.28
2022-10-17T07:10:12.878Z,4.95
2022-10-17T07:12:39.344Z,4.73
2022-10-17T07:15:06.079Z,5.30
2022-10-17T07:17:32.665Z,4.93
2022-10-17T07:19:59.145Z,5.30
2022-10-17T07:22:25.658Z,4.95
2022-10-17T07:24:52.123Z,5.63
2022-10-17T07:27:18.681Z,4.82
2022-10-17T07:29:45.061Z,5.00
2022-10-17T07:32:11.435Z,5.38
2022-10-17T07:34:37.922Z,4.90
2022-10-17T07:37:06.826Z,5.27
2022-10-17T07:39:35.525Z,4.75
2022-10-17T07:42:01.978Z,5.72
2022-10-17T07:44:28.723Z,5.68
2022-10-17T07:46:55.252Z,4.40
2022-10-17T07:49:21.607Z,5.17
2022-10-17T07:51:48.366Z,5.47
2022-10-17T07:54:15.006Z,4.80
2022-10-17T07:56:41.474Z,4.82
2022-10-17T07:59:09.411Z,4.80
2022-10-17T08:01:36.854Z,5.23
2022-10-17T08:04:03.379Z,6.13
2022-10-17T08:06:29.786Z,4.97
2022-10-17T08:08:57.787Z,5.10
2022-10-17T08:11:25.374Z,4.82
2022-10-17T08:13:52.068Z,4.90
2022-10-17T08:16:18.478Z,4.38
2022-10-17T08:18:45.025Z,4.80
2022-10-17T08:21:13.250Z,4.60
2022-10-17T08:23:40.021Z,4.30
2022-10-17T08:26:10.348Z,4.60
2022-10-17T08:28:38.629Z,4.78
2022-10-17T08:31:10.480Z,4.90
2022-10-17T08:33:37.459Z,5.07
2022-10-17T08:36:05.641Z,4.80
2022-10-17T08:38:35.376Z,5.10
2022-10-17T08:41:39.015Z,4.63
2022-10-17T08:44:20.413Z,5.65
2022-10-17T08:46:50.024Z,4.35
2022-10-17T08:49:25.913Z,4.75
2022-10-17T08:52:02.813Z,4.37
2022-10-17T08:54:41.935Z,4.30
2022-10-17T08:57:18.041Z,4.25
2022-10-17T08:59:50.184Z,4.68
2022-10-17T09:02:37.020Z,4.43
2022-10-17T09:05:34.813Z,5.03
2022-10-17T09:08:22.351Z,4.88
2022-10-17T09:11:06.228Z,4.40
2022-10-17T09:13:55.057Z,4.70
2022-10-17T09:16:54.366Z,4.85
2022-10-17T09:19:26.503Z,4.83
2022-10-17T09:22:00.734Z,5.63
2022-10-17T09:24:48.224Z,4.82
2022-10-17T09:27:23.785Z,5.28
2022-10-17T09:29:54.707Z,4.93
2022-10-17T09:32:24.718Z,5.13
2022-10-17T09:34:53.250Z,5.22
2022-10-17T09:37:25.378Z,5.57
2022-10-17T09:39:51.837Z,5.10
2022-10-17T09:42:21.684Z,5.20
2022-10-17T09:45:12.095Z,4.60
2022-10-17T09:47:43.481Z,5.43
2022-10-17T09:50:27.118Z,4.93
2022-10-17T09:52:55.773Z,5.15
2022-10-17T09:55:25.313Z,5.35
2022-10-17T09:57:58.710Z,5.33
2022-10-17T10:00:30.843Z,5.38
2022-10-17T10:03:20.702Z,5.35
2022-10-17T10:06:13.107Z,5.30
2022-10-17T10:08:52.484Z,4.63
2022-10-17T10:11:24.621Z,5.03
2022-10-17T10:13:51.892Z,5.10
2022-10-17T10:16:30.706Z,5.60
2022-10-17T10:18:57.822Z,5.15
2022-10-17T10:21:26.863Z,5.20
2022-10-17T10:24:04.510Z,5.30
2022-10-17T10:26:44.473Z,5.45
2022-10-17T10:29:32.249Z,5.18
2022-10-17T10:32:20.298Z,4.57
2022-10-17T10:34:54.532Z,4.43
2022-10-17T10:37:37.200Z,4.67
2022-10-17T10:40:18.508Z,4.88
2022-10-17T10:42:49.126Z,4.55
2022-10-17T10:45:47.838Z,4.63
2022-10-17T10:48:19.981Z,4.63
2022-10-17T10:50:53.756Z,4.63
2022-10-17T10:54:14.513Z,4.47
2022-10-17T10:56:44.842Z,4.10
2022-10-17T10:59:20.595Z,4.15
2022-10-17T11:02:12.454Z,3.80
2022-10-17T11:04:47.680Z,4.20
2022-10-17T11:07:20.123Z,3.95
2022-10-17T11:09:54.862Z,4.38
2022-10-17T11:12:27.640Z,3.58
2022-10-17T11:15:03.793Z,3.70
2022-10-17T11:17:59.949Z,3.50
2022-10-17T11:20:35.496Z,3.63
2022-10-17T11:23:19.704Z,3.63
2022-10-17T11:25:50.113Z,3.80
2022-10-17T11:28:21.655Z,3.55
2022-10-17T11:31:07.934Z,4.37
2022-10-17T11:33:45.802Z,4.18
2022-10-17T11:36:14.675Z,3.88
2022-10-17T11:39:18.632Z,4.22
2022-10-17T11:41:55.224Z,4.28
2022-10-17T11:44:36.633Z,4.40
2022-10-17T11:47:18.279Z,4.07
2022-10-17T11:49:51.447Z,4.03
2022-10-17T11:55:29.335Z,4.15
2022-10-17T11:58:25.058Z,4.23
2022-10-17T12:01:10.475Z,4.78
2022-10-17T12:03:49.736Z,4.45
2022-10-17T12:06:25.827Z,4.30
2022-10-17T12:09:06.464Z,4.30
2022-10-17T12:11:45.680Z,4.10
2022-10-17T12:14:37.757Z,4.40
2022-10-17T12:17:06.908Z,4.45
2022-10-17T12:19:37.721Z,4.68
2022-10-17T12:22:22.650Z,4.35
2022-10-17T12:25:02.147Z,4.43
2022-10-17T12:27:46.308Z,4.85
2022-10-17T12:30:13.033Z,4.43
2022-10-17T12:33:06.109Z,4.50
2022-10-17T12:35:34.648Z,5.00
2022-10-17T12:38:13.773Z,4.17
2022-10-17T12:40:48.534Z,3.08
2022-10-17T12:43:15.346Z,2.80
2022-10-17T12:45:44.493Z,2.53
2022-10-17T12:48:10.936Z,2.72
2022-10-17T12:54:11.837Z,2.08
2022-10-17T12:56:49.731Z,2.00
2022-10-17T12:59:27.762Z,2.22
2022-10-17T13:01:58.646Z,2.33
2022-10-17T13:04:26.580Z,2.63
2022-10-17T13:06:56.833Z,2.05
2022-10-17T13:09:33.136Z,2.00
2022-10-17T13:12:06.327Z,2.28
2022-10-17T13:14:34.068Z,2.05
2022-10-17T13:17:03.041Z,2.03
2022-10-17T13:19:42.695Z,2.78
2022-10-17T13:22:20.063Z,2.50
2022-10-17T13:24:47.716Z,1.88
2022-10-17T13:27:27.823Z,2.10
2022-10-17T13:29:59.125Z,1.97
2022-10-17T13:32:36.044Z,2.30
2022-10-17T13:35:14.256Z,2.55
2022-10-17T13:37:50.245Z,3.10
2022-10-17T13:40:49.464Z,2.53
2022-10-17T13:43:24.320Z,2.77
2022-10-17T13:46:19.166Z,2.38
2022-10-17T13:48:50.516Z,2.58
2022-10-17T13:51:17.325Z,2.67
2022-10-17T13:53:44.497Z,3.15
2022-10-17T13:56:28.328Z,2.90
2022-10-17T13:59:17.316Z,3.10
2022-10-17T14:01:43.849Z,2.97
2022-10-17T14:04:19.459Z,3.38
2022-10-17T14:06:49.707Z,3.28
2022-10-17T14:09:28.881Z,3.50
2022-10-17T14:12:00.579Z,3.33
2022-10-17T14:14:28.172Z,3.80
2022-10-17T14:16:54.983Z,3.70
2022-10-17T14:19:28.763Z,3.97
2022-10-17T14:22:14.017Z,4.80
2022-10-17T14:24:42.132Z,4.43
2022-10-17T14:27:34.881Z,4.55
2022-10-17T14:30:51.644Z,4.28
2022-10-17T14:33:26.617Z,4.60
2022-10-17T14:35:55.659Z,4.70
2022-10-17T14:38:22.899Z,4.93
2022-10-17T14:41:20.934Z,5.07
2022-10-17T14:43:53.986Z,5.25
2022-10-17T14:46:20.352Z,4.80
2022-10-17T14:48:52.715Z,5.70
2022-10-17T14:51:19.099Z,5.80
2022-10-17T14:54:05.793Z,5.32
2022-10-17T14:56:43.121Z,5.70
2022-10-17T14:59:21.416Z,5.55
2022-10-17T15:01:52.151Z,4.70
2022-10-17T15:04:18.789Z,5.68
2022-10-17T15:06:45.255Z,4.75
2022-10-17T15:09:12.314Z,5.18
2022-10-17T15:11:38.985Z,5.07
2022-10-17T15:14:05.369Z,5.20
2022-10-17T15:16:33.572Z,5.82
2022-10-17T15:19:00.779Z,5.35
2022-10-17T15:21:39.202Z,5.22
2022-10-17T15:24:07.104Z,5.63
2022-10-17T15:26:34.824Z,5.00
2022-10-17T15:29:01.771Z,4.97
2022-10-17T15:31:31.132Z,5.28
2022-10-17T15:33:57.663Z,5.38
2022-10-17T15:36:29.984Z,4.28
2022-10-17T15:39:01.601Z,4.97
2022-10-17T15:41:30.548Z,5.32
2022-10-17T15:43:57.929Z,5.00
2022-10-17T15:46:26.692Z,5.15
2022-10-17T15:48:54.758Z,4.88
2022-10-17T15:51:21.999Z,4.80
2022-10-17T15:53:48.755Z,4.95
2022-10-17T15:56:36.271Z,5.03
2022-10-17T15:59:05.271Z,5.00
2022-10-17T16:01:33.380Z,4.43
2022-10-17T16:04:00.043Z,4.80
2022-10-17T16:06:26.894Z,5.18
2022-10-17T16:08:53.264Z,4.90
2022-10-17T16:11:33.278Z,4.40
2022-10-17T16:14:01.978Z,4.90
2022-10-17T16:16:29.096Z,4.47
2022-10-17T16:18:55.540Z,4.80
2022-10-17T16:21:26.278Z,5.50
2022-10-17T16:23:53.057Z,5.40
2022-10-17T16:26:19.654Z,4.53
2022-10-17T16:28:46.548Z,4.80
2022-10-17T16:31:21.873Z,4.90
2022-10-17T16:33:50.268Z,4.90
2022-10-17T16:36:17.378Z,5.18
2022-10-17T16:38:44.412Z,4.78
2022-10-17T16:41:23.707Z,4.93
2022-10-17T16:43:51.764Z,5.05
2022-10-17T16:46:19.235Z,5.15
2022-10-17T16:48:46.359Z,4.85
2022-10-17T16:51:14.646Z,4.20
2022-10-17T16:53:43.823Z,4.17
2022-10-17T16:56:21.540Z,3.78
2022-10-17T16:58:48.945Z,3.90
2022-10-17T17:01:20.940Z,3.15
2022-10-17T17:03:47.872Z,3.33
2022-10-17T17:06:20.854Z,3.53
2022-10-17T17:08:47.489Z,3.05
2022-10-17T17:11:15.734Z,3.13
2022-10-17T17:13:42.792Z,3.30
2022-10-17T17:16:12.958Z,2.70
2022-10-17T17:18:39.896Z,2.60
2022-10-17T17:21:07.816Z,2.42
2022-10-17T17:23:36.346Z,2.63
2022-10-17T17:26:05.889Z,2.70
2022-10-17T17:28:33.704Z,2.88
2022-10-17T17:31:00.698Z,3.00
2022-10-17T17:33:29.741Z,2.92
2022-10-17T17:35:57.664Z,3.42
2022-10-17T17:38:24.331Z,3.10
2022-10-17T17:40:51.380Z,3.03
2022-10-17T17:43:18.425Z,2.80
2022-10-17T17:45:44.800Z,2.70
2022-10-17T17:48:12.221Z,2.83
2022-10-17T17:50:40.519Z,2.78
2022-10-17T17:53:08.388Z,2.97
2022-10-17T17:55:35.643Z,3.77
2022-10-17T17:58:02.934Z,3.42
2022-10-17T18:00:29.453Z,3.80
2022-10-17T18:02:56.409Z,3.63
2022-10-17T18:05:23.422Z,3.85
2022-10-17T18:07:49.796Z,4.07
2022-10-17T18:10:16.203Z,4.65
2022-10-17T18:12:42.879Z,4.43
2022-10-17T18:15:09.660Z,4.15
2022-10-17T18:17:36.074Z,4.28
2022-10-17T18:20:03.414Z,4.30
2022-10-17T18:22:29.928Z,5.03
2022-10-17T18:24:56.474Z,4.63
2022-10-17T18:27:23.106Z,5.13
2022-10-17T18:29:50.396Z,5.07
2022-10-17T18:32:17.140Z,4.87
2022-10-17T18:34:43.467Z,4.95
2022-10-17T18:37:09.839Z,5.55
2022-10-17T18:39:36.248Z,4.88
2022-10-17T18:42:02.703Z,4.55
2022-10-17T18:44:29.238Z,5.17
2022-10-17T18:46:58.505Z,4.28
2022-10-17T18:49:27.875Z,4.30
2022-10-17T18:51:54.280Z,4.45
2022-10-17T18:54:21.969Z,5.10
2022-10-17T18:56:52.995Z,5.17
2022-10-17T18:59:20.720Z,4.70
2022-10-17T19:01:47.929Z,4.80
2022-10-17T19:04:14.938Z,5.18
2022-10-17T19:06:43.333Z,5.93
2022-10-17T19:09:11.722Z,5.23
2022-10-17T19:11:38.962Z,5.30
2022-10-17T19:14:13.208Z,5.78
2022-10-17T19:16:48.763Z,6.47
2022-10-17T19:19:21.041Z,7.13
2022-10-17T19:21:48.300Z,6.60
2022-10-17T19:24:17.538Z,6.53
2022-10-17T19:26:44.952Z,6.15
2022-10-17T19:29:15.765Z,5.75
2022-10-17T19:31:44.341Z,6.38
2022-10-17T19:34:12.023Z,6.33
2022-10-17T19:36:38.927Z,6.43
2022-10-17T19:39:08.516Z,6.10
2022-10-17T19:41:36.344Z,6.30
2022-10-17T19:44:03.046Z,6.60
2022-10-17T19:46:30.781Z,6.73
2022-10-17T19:48:57.473Z,6.30
2022-10-17T19:51:24.825Z,6.25
2022-10-17T19:53:52.415Z,6.53
2022-10-17T19:56:21.077Z,6.95
2022-10-17T19:58:48.945Z,6.93
2022-10-17T20:01:18.935Z,6.80
2022-10-17T20:03:45.951Z,6.80
2022-10-17T20:06:12.895Z,6.95
2022-10-17T20:08:40.045Z,7.03
2022-10-17T20:11:08.903Z,8.13
2022-10-17T20:13:36.462Z,7.90
2022-10-17T20:16:04.507Z,8.15
2022-10-17T20:18:30.975Z,7.70
2022-10-17T20:21:03.833Z,7.95
2022-10-17T20:23:30.223Z,8.60
2022-10-17T20:26:08.062Z,8.85
2022-10-17T20:28:40.005Z,8.60
2022-10-17T20:31:08.535Z,9.25
2022-10-17T20:33:34.881Z,8.68
2022-10-17T20:36:05.006Z,9.13
2022-10-17T20:38:31.820Z,8.20
2022-10-17T20:41:05.313Z,9.48
2022-10-17T20:43:32.347Z,8.80
2022-10-17T20:46:04.796Z,9.88
2022-10-17T20:48:42.593Z,9.37
2022-10-17T20:51:10.750Z,9.27
2022-10-17T20:53:37.863Z,8.82
2022-10-17T20:56:07.316Z,9.65
2022-10-17T20:58:34.243Z,10.07
2022-10-17T21:01:10.649Z,8.33
2022-10-17T21:03:41.026Z,8.95
2022-10-17T21:06:10.673Z,8.80
2022-10-17T21:08:37.060Z,8.85
2022-10-17T21:11:12.152Z,9.07
2022-10-17T21:13:38.938Z,8.47
2022-10-17T21:16:11.785Z,8.95
2022-10-17T21:18:38.805Z,9.45
2022-10-17T21:21:11.420Z,8.40
2022-10-17T21:23:39.461Z,8.93
2022-10-17T21:26:08.796Z,8.53
2022-10-17T21:28:39.340Z,8.52
2022-10-17T21:31:09.654Z,8.48
2022-10-17T21:33:36.337Z,8.02
2022-10-17T21:36:03.280Z,8.25
2022-10-17T21:38:29.752Z,8.33
2022-10-17T21:40:56.222Z,8.82
2022-10-17T21:43:22.884Z,9.25
2022-10-17T21:45:49.186Z,8.45
2022-10-17T21:48:15.589Z,9.25
2022-10-17T21:50:42.310Z,8.53
2022-10-17T21:53:08.803Z,8.15
2022-10-17T21:55:38.317Z,8.40
2022-10-17T21:58:05.025Z,7.70
2022-10-17T22:00:31.344Z,8.80
2022-10-17T22:02:57.781Z,8.03
2022-10-17T22:05:24.182Z,8.48
2022-10-17T22:07:50.515Z,8.48
2022-10-17T22:10:16.979Z,8.38
2022-10-17T22:12:43.321Z,9.52
2022-10-17T22:15:09.842Z,9.35
2022-10-17T22:17:36.272Z,9.07
2022-10-17T22:20:02.756Z,8.68
2022-10-17T22:22:30.254Z,8.57
2022-10-17T22:24:56.598Z,8.15
2022-10-17T22:27:22.925Z,8.07
2022-10-17T22:29:49.245Z,8.32
2022-10-17T22:32:19.985Z,8.10
2022-10-17T22:34:48.898Z,7.68
2022-10-17T22:37:15.302Z,7.60
2022-10-17T22:39:41.786Z,8.10
2022-10-17T22:42:08.150Z,8.35
2022-10-17T22:44:34.475Z,8.93
2022-10-17T22:47:00.865Z,9.25
2022-10-17T22:49:27.204Z,8.80
2022-10-17T22:51:53.625Z,8.00
2022-10-17T22:54:19.978Z,8.70
2022-10-17T22:56:46.619Z,8.10
2022-10-17T22:59:12.999Z,7.32
2022-10-17T23:01:39.560Z,7.93
2022-10-17T23:04:05.997Z,7.40
2022-10-17T23:06:32.418Z,8.80
2022-10-17T23:08:58.831Z,7.88
2022-10-17T23:11:25.217Z,7.72
2022-10-17T23:13:51.736Z,7.15
2022-10-17T23:16:18.246Z,7.13
2022-10-17T23:18:44.673Z,7.22
2022-10-17T23:21:11.315Z,7.00
2022-10-17T23:23:37.669Z,7.80
2022-10-17T23:26:10.306Z,6.97
2022-10-17T23:28:37.163Z,8.68
2022-10-17T23:31:16.855Z,7.70
2022-10-17T23:33:45.045Z,8.25
2022-10-17T23:36:14.035Z,7.35
2022-10-17T23:38:41.963Z,7.38
2022-10-17T23:41:08.940Z,7.15
2022-10-17T23:43:35.934Z,7.25
2022-10-17T23:46:03.027Z,8.15
2022-10-17T23:48:29.832Z,7.00
2022-10-17T23:50:57.075Z,7.00
2022-10-17T23:53:24.494Z,7.60
2022-10-17T23:55:51.159Z,8.23
2022-10-17T23:58:17.753Z,7.93
